UVT649 UWKD-UWPS
Flight info
| Callsign | UVT649 |
|---|---|
| Flight time | 0h 37m |
| Altitude | 24000 |
| Route | N0420F240 SONUM T766 UGLAD |
| Aircraft | CRJ2/M-J/L |
Departure
| Time | 2026-05-07 17:34 |
|---|---|
| Airport | Kazan International Airport (UWKD) |
Arrival
| Time | 2026-05-07 18:11 |
|---|---|
| Airport | Saransk International Airport (UWPS) |
| Time | Latitude | Longitude | Altitude | Speed | Heading |
|---|---|---|---|---|---|
| 2026-05-07 17:08 | 55.60729 | 49.29537 | 414 ft | 0 kts | 35° |
| 2026-05-07 17:20 | 55.60733 | 49.29541 | 411 ft | 4 kts | 35° |
| 2026-05-07 17:21 | 55.60772 | 49.29559 | 412 ft | 8 kts | 342° |
| 2026-05-07 17:21 | 55.60813 | 49.29467 | 414 ft | 11 kts | 279° |
| 2026-05-07 17:21 | 55.60801 | 49.29413 | 411 ft | 4 kts | 216° |
| 2026-05-07 17:21 | 55.60763 | 49.29364 | 414 ft | 10 kts | 216° |
| 2026-05-07 17:22 | 55.60692 | 49.29279 | 414 ft | 15 kts | 213° |
| 2026-05-07 17:22 | 55.60598 | 49.29156 | 414 ft | 20 kts | 232° |
| 2026-05-07 17:22 | 55.60582 | 49.28878 | 414 ft | 26 kts | 275° |
| 2026-05-07 17:22 | 55.60606 | 49.28583 | 411 ft | 12 kts | 297° |
| 2026-05-07 17:23 | 55.60646 | 49.28476 | 414 ft | 8 kts | 304° |
| 2026-05-07 17:23 | 55.60684 | 49.28380 | 412 ft | 11 kts | 304° |
| 2026-05-07 17:23 | 55.60724 | 49.28276 | 412 ft | 8 kts | 301° |
| 2026-05-07 17:23 | 55.60752 | 49.28204 | 412 ft | 7 kts | 304° |
| 2026-05-07 17:24 | 55.60783 | 49.28123 | 412 ft | 9 kts | 304° |
| 2026-05-07 17:24 | 55.60825 | 49.28016 | 412 ft | 12 kts | 304° |
| 2026-05-07 17:24 | 55.60877 | 49.27881 | 414 ft | 15 kts | 304° |
| 2026-05-07 17:24 | 55.60939 | 49.27721 | 410 ft | 17 kts | 304° |
| 2026-05-07 17:25 | 55.61009 | 49.27541 | 411 ft | 19 kts | 304° |
| 2026-05-07 17:25 | 55.61088 | 49.27339 | 414 ft | 21 kts | 304° |
| 2026-05-07 17:25 | 55.61169 | 49.27127 | 412 ft | 15 kts | 304° |
| 2026-05-07 17:25 | 55.61186 | 49.27083 | 411 ft | 0 kts | 304° |
| 2026-05-07 17:26 | 55.61187 | 49.27081 | 411 ft | 0 kts | 304° |
| 2026-05-07 17:27 | 55.61192 | 49.27067 | 414 ft | 4 kts | 304° |
| 2026-05-07 17:27 | 55.61212 | 49.27014 | 411 ft | 6 kts | 298° |
| 2026-05-07 17:28 | 55.61211 | 49.26928 | 414 ft | 8 kts | 238° |
| 2026-05-07 17:28 | 55.61197 | 49.26903 | 413 ft | 0 kts | 218° |
| 2026-05-07 17:30 | 55.61193 | 49.26897 | 413 ft | 3 kts | 218° |
| 2026-05-07 17:30 | 55.61169 | 49.26867 | 415 ft | 6 kts | 215° |
| 2026-05-07 17:31 | 55.61167 | 49.26864 | 415 ft | 0 kts | 215° |
| 2026-05-07 17:31 | 55.61165 | 49.26862 | 415 ft | 2 kts | 215° |
| 2026-05-07 17:31 | 55.61131 | 49.26819 | 416 ft | 10 kts | 216° |
| 2026-05-07 17:31 | 55.61045 | 49.26795 | 414 ft | 16 kts | 136° |
| 2026-05-07 17:32 | 55.61022 | 49.26852 | 413 ft | 2 kts | 124° |
| 2026-05-07 17:32 | 55.61009 | 49.26885 | 412 ft | 5 kts | 124° |
| 2026-05-07 17:32 | 55.60989 | 49.26936 | 413 ft | 0 kts | 124° |
| 2026-05-07 17:34 | 55.60976 | 49.26969 | 413 ft | 22 kts | 124° |
| 2026-05-07 17:34 | 55.60695 | 49.27698 | 409 ft | 118 kts | 125° |
| 2026-05-07 17:34 | 55.60094 | 49.29235 | 658 ft | 173 kts | 124° |
| 2026-05-07 17:34 | 55.59359 | 49.31170 | 1352 ft | 204 kts | 123° |
| 2026-05-07 17:35 | 55.58547 | 49.33293 | 2051 ft | 214 kts | 123° |
| 2026-05-07 17:35 | 55.57631 | 49.35666 | 2380 ft | 250 kts | 124° |
| 2026-05-07 17:35 | 55.56653 | 49.38184 | 3501 ft | 243 kts | 123° |
| 2026-05-07 17:35 | 55.55686 | 49.40663 | 4479 ft | 249 kts | 123° |
| 2026-05-07 17:36 | 55.54479 | 49.42839 | 5313 ft | 258 kts | 151° |
| 2026-05-07 17:36 | 55.52730 | 49.43468 | 6207 ft | 262 kts | 187° |
| 2026-05-07 17:36 | 55.51071 | 49.42220 | 7046 ft | 263 kts | 223° |
| 2026-05-07 17:36 | 55.50046 | 49.39545 | 7578 ft | 266 kts | 250° |
| 2026-05-07 17:37 | 55.49132 | 49.36626 | 7527 ft | 289 kts | 229° |
| 2026-05-07 17:37 | 55.47429 | 49.34551 | 7554 ft | 304 kts | 210° |
| 2026-05-07 17:38 | 55.43644 | 49.27619 | 9533 ft | 271 kts | 233° |
| 2026-05-07 17:38 | 55.42466 | 49.25002 | 9975 ft | 272 kts | 234° |
| 2026-05-07 17:38 | 55.41254 | 49.22423 | 10386 ft | 274 kts | 230° |
| 2026-05-07 17:38 | 55.39934 | 49.19996 | 10801 ft | 275 kts | 227° |
| 2026-05-07 17:39 | 55.38578 | 49.17659 | 11224 ft | 276 kts | 226° |
| 2026-05-07 17:39 | 55.37213 | 49.15270 | 11645 ft | 277 kts | 227° |
| 2026-05-07 17:39 | 55.35863 | 49.12849 | 12071 ft | 278 kts | 227° |
| 2026-05-07 17:39 | 55.34502 | 49.10413 | 12504 ft | 279 kts | 227° |
| 2026-05-07 17:40 | 55.33154 | 49.08001 | 12920 ft | 280 kts | 227° |
| 2026-05-07 17:40 | 55.31781 | 49.05553 | 13340 ft | 282 kts | 227° |
| 2026-05-07 17:40 | 55.30400 | 49.03089 | 13764 ft | 283 kts | 227° |
| 2026-05-07 17:40 | 55.29023 | 49.00636 | 14128 ft | 284 kts | 227° |
| 2026-05-07 17:41 | 55.27626 | 48.98151 | 14485 ft | 286 kts | 227° |
| 2026-05-07 17:41 | 55.26220 | 48.95651 | 14851 ft | 287 kts | 227° |
| 2026-05-07 17:41 | 55.24827 | 48.93181 | 15199 ft | 288 kts | 227° |
| 2026-05-07 17:41 | 55.23411 | 48.90667 | 15556 ft | 289 kts | 227° |
| 2026-05-07 17:42 | 55.21985 | 48.88141 | 15897 ft | 291 kts | 227° |
| 2026-05-07 17:42 | 55.20572 | 48.85641 | 16248 ft | 295 kts | 227° |
| 2026-05-07 17:42 | 55.19080 | 48.83003 | 16652 ft | 312 kts | 227° |
| 2026-05-07 17:42 | 55.17514 | 48.80238 | 17153 ft | 325 kts | 227° |
| 2026-05-07 17:43 | 55.15908 | 48.77409 | 17724 ft | 334 kts | 227° |
| 2026-05-07 17:43 | 55.14241 | 48.74473 | 18363 ft | 341 kts | 227° |
| 2026-05-07 17:43 | 55.12571 | 48.71535 | 18986 ft | 344 kts | 227° |
| 2026-05-07 17:43 | 55.10867 | 48.68543 | 19523 ft | 348 kts | 226° |
| 2026-05-07 17:44 | 55.09177 | 48.65578 | 19766 ft | 350 kts | 226° |
| 2026-05-07 17:44 | 55.07434 | 48.62523 | 19877 ft | 356 kts | 226° |
| 2026-05-07 17:44 | 55.05665 | 48.59427 | 19932 ft | 363 kts | 226° |
| 2026-05-07 17:44 | 55.03882 | 48.56309 | 19953 ft | 370 kts | 226° |
| 2026-05-07 17:45 | 55.02037 | 48.53089 | 19968 ft | 377 kts | 226° |
| 2026-05-07 17:45 | 55.00162 | 48.49818 | 19981 ft | 383 kts | 226° |
| 2026-05-07 17:45 | 54.98309 | 48.46596 | 20441 ft | 375 kts | 226° |
| 2026-05-07 17:45 | 54.96480 | 48.43417 | 20946 ft | 368 kts | 226° |
| 2026-05-07 17:46 | 54.94674 | 48.40283 | 21452 ft | 363 kts | 226° |
| 2026-05-07 17:46 | 54.92895 | 48.37199 | 21970 ft | 358 kts | 226° |
| 2026-05-07 17:46 | 54.91138 | 48.34157 | 22491 ft | 353 kts | 226° |
| 2026-05-07 17:46 | 54.89426 | 48.31197 | 23014 ft | 347 kts | 225° |
| 2026-05-07 17:47 | 54.87724 | 48.28247 | 23525 ft | 342 kts | 227° |
| 2026-05-07 17:47 | 54.86433 | 48.24793 | 23757 ft | 341 kts | 248° |
| 2026-05-07 17:47 | 54.85680 | 48.20933 | 23871 ft | 343 kts | 255° |
| 2026-05-07 17:47 | 54.85104 | 48.16880 | 23935 ft | 348 kts | 258° |
| 2026-05-07 17:48 | 54.84576 | 48.12721 | 23961 ft | 353 kts | 258° |
| 2026-05-07 17:48 | 54.84037 | 48.08572 | 23976 ft | 358 kts | 257° |
| 2026-05-07 17:48 | 54.83426 | 48.04319 | 23983 ft | 364 kts | 256° |
| 2026-05-07 17:48 | 54.82782 | 48.00084 | 23983 ft | 368 kts | 256° |
| 2026-05-07 17:49 | 54.82125 | 47.95748 | 23986 ft | 373 kts | 256° |
| 2026-05-07 17:49 | 54.81460 | 47.91354 | 23985 ft | 377 kts | 256° |
| 2026-05-07 17:49 | 54.80796 | 47.86977 | 23984 ft | 381 kts | 256° |
| 2026-05-07 17:49 | 54.80116 | 47.82503 | 23983 ft | 384 kts | 256° |
| 2026-05-07 17:50 | 54.79430 | 47.77990 | 23985 ft | 388 kts | 256° |
| 2026-05-07 17:50 | 54.78739 | 47.73452 | 23986 ft | 391 kts | 256° |
| 2026-05-07 17:50 | 54.78046 | 47.68924 | 23982 ft | 393 kts | 256° |
| 2026-05-07 17:50 | 54.77337 | 47.64317 | 23981 ft | 397 kts | 256° |
| 2026-05-07 17:51 | 54.76628 | 47.59710 | 23979 ft | 400 kts | 256° |
| 2026-05-07 17:51 | 54.75908 | 47.55044 | 23985 ft | 402 kts | 256° |
| 2026-05-07 17:51 | 54.75176 | 47.50325 | 23980 ft | 405 kts | 256° |
| 2026-05-07 17:51 | 54.74448 | 47.45632 | 23978 ft | 409 kts | 256° |
| 2026-05-07 17:52 | 54.73699 | 47.40828 | 23980 ft | 414 kts | 255° |
| 2026-05-07 17:52 | 54.72949 | 47.36032 | 23977 ft | 418 kts | 255° |
| 2026-05-07 17:52 | 54.72182 | 47.31129 | 23978 ft | 422 kts | 255° |
| 2026-05-07 17:52 | 54.71411 | 47.26224 | 23788 ft | 430 kts | 255° |
| 2026-05-07 17:53 | 54.70630 | 47.21266 | 23390 ft | 424 kts | 255° |
| 2026-05-07 17:53 | 54.69856 | 47.16360 | 22948 ft | 418 kts | 255° |
| 2026-05-07 17:53 | 54.69092 | 47.11540 | 22513 ft | 413 kts | 255° |
| 2026-05-07 17:53 | 54.68339 | 47.06813 | 22082 ft | 410 kts | 255° |
| 2026-05-07 17:54 | 54.67577 | 47.02078 | 21657 ft | 407 kts | 253° |
| 2026-05-07 17:54 | 54.66617 | 46.97468 | 21247 ft | 404 kts | 248° |
| 2026-05-07 17:54 | 54.65527 | 46.93039 | 20838 ft | 402 kts | 247° |
| 2026-05-07 17:54 | 54.64421 | 46.88596 | 20430 ft | 400 kts | 247° |
| 2026-05-07 17:55 | 54.63339 | 46.84222 | 20035 ft | 399 kts | 248° |
| 2026-05-07 17:55 | 54.62264 | 46.79793 | 19644 ft | 397 kts | 248° |
| 2026-05-07 17:55 | 54.61222 | 46.75422 | 19225 ft | 388 kts | 248° |
| 2026-05-07 17:55 | 54.60221 | 46.71211 | 18803 ft | 380 kts | 248° |
| 2026-05-07 17:56 | 54.59195 | 46.67041 | 18369 ft | 374 kts | 246° |
| 2026-05-07 17:56 | 54.58035 | 46.63054 | 17891 ft | 369 kts | 242° |
| 2026-05-07 17:56 | 54.56793 | 46.59190 | 17412 ft | 365 kts | 242° |
| 2026-05-07 17:56 | 54.55573 | 46.55438 | 16944 ft | 361 kts | 242° |
| 2026-05-07 17:57 | 54.54355 | 46.51650 | 16472 ft | 358 kts | 242° |
| 2026-05-07 17:57 | 54.53553 | 46.49153 | 16166 ft | 357 kts | 242° |
| 2026-05-07 17:57 | 54.51989 | 46.44199 | 15560 ft | 354 kts | 242° |
| 2026-05-07 17:57 | 54.50819 | 46.40468 | 15109 ft | 352 kts | 242° |
| 2026-05-07 17:58 | 54.49655 | 46.36757 | 14671 ft | 350 kts | 242° |
| 2026-05-07 17:58 | 54.48517 | 46.33141 | 14241 ft | 343 kts | 243° |
| 2026-05-07 17:58 | 54.47387 | 46.29559 | 13810 ft | 338 kts | 242° |
| 2026-05-07 17:58 | 54.46271 | 46.26025 | 13331 ft | 333 kts | 243° |
| 2026-05-07 17:59 | 54.45179 | 46.22574 | 12871 ft | 328 kts | 243° |
| 2026-05-07 17:59 | 54.44093 | 46.19144 | 12387 ft | 324 kts | 243° |
| 2026-05-07 17:59 | 54.43018 | 46.15754 | 11954 ft | 319 kts | 243° |
| 2026-05-07 17:59 | 54.41963 | 46.12422 | 11550 ft | 314 kts | 243° |
| 2026-05-07 18:00 | 54.40930 | 46.09148 | 11148 ft | 309 kts | 243° |
| 2026-05-07 18:00 | 54.39917 | 46.05972 | 10759 ft | 305 kts | 243° |
| 2026-05-07 18:00 | 54.38900 | 46.02792 | 10373 ft | 301 kts | 243° |
| 2026-05-07 18:00 | 54.37905 | 45.99686 | 10149 ft | 292 kts | 243° |
| 2026-05-07 18:01 | 54.36958 | 45.96715 | 10042 ft | 280 kts | 243° |
| 2026-05-07 18:01 | 54.36039 | 45.93847 | 9888 ft | 272 kts | 243° |
| 2026-05-07 18:01 | 54.35129 | 45.91005 | 9529 ft | 271 kts | 243° |
| 2026-05-07 18:01 | 54.34351 | 45.88070 | 9132 ft | 269 kts | 258° |
| 2026-05-07 18:02 | 54.33766 | 45.81765 | 8337 ft | 269 kts | 262° |
| 2026-05-07 18:02 | 54.33492 | 45.78590 | 7930 ft | 269 kts | 262° |
| 2026-05-07 18:02 | 54.33225 | 45.75420 | 7539 ft | 269 kts | 262° |
| 2026-05-07 18:03 | 54.32966 | 45.72244 | 7141 ft | 268 kts | 262° |
| 2026-05-07 18:03 | 54.32715 | 45.69077 | 6758 ft | 267 kts | 262° |
| 2026-05-07 18:03 | 54.32478 | 45.65964 | 6377 ft | 265 kts | 262° |
| 2026-05-07 18:03 | 54.32253 | 45.62833 | 5971 ft | 263 kts | 262° |
| 2026-05-07 18:04 | 54.32024 | 45.59777 | 5536 ft | 254 kts | 261° |
| 2026-05-07 18:04 | 54.31763 | 45.56830 | 5080 ft | 247 kts | 259° |
| 2026-05-07 18:04 | 54.31486 | 45.53952 | 4624 ft | 243 kts | 259° |
| 2026-05-07 18:04 | 54.31216 | 45.51154 | 4174 ft | 239 kts | 258° |
| 2026-05-07 18:05 | 54.30955 | 45.48404 | 3812 ft | 223 kts | 258° |
| 2026-05-07 18:05 | 54.30709 | 45.45862 | 3411 ft | 210 kts | 258° |
| 2026-05-07 18:05 | 54.30477 | 45.43440 | 2969 ft | 202 kts | 257° |
| 2026-05-07 18:05 | 54.30258 | 45.41142 | 2700 ft | 187 kts | 254° |
| 2026-05-07 18:06 | 54.29627 | 45.39422 | 2525 ft | 160 kts | 207° |
| 2026-05-07 18:06 | 54.28737 | 45.38594 | 2440 ft | 136 kts | 200° |
| 2026-05-07 18:06 | 54.27935 | 45.37906 | 2261 ft | 122 kts | 199° |
| 2026-05-07 18:06 | 54.27226 | 45.37278 | 2184 ft | 112 kts | 199° |
| 2026-05-07 18:07 | 54.26546 | 45.36646 | 2104 ft | 113 kts | 200° |
| 2026-05-07 18:07 | 54.25804 | 45.35939 | 2088 ft | 130 kts | 202° |
| 2026-05-07 18:07 | 54.25017 | 45.35140 | 2062 ft | 132 kts | 204° |
| 2026-05-07 18:07 | 54.24241 | 45.34295 | 2042 ft | 132 kts | 205° |
| 2026-05-07 18:08 | 54.23477 | 45.33450 | 2032 ft | 133 kts | 205° |
| 2026-05-07 18:08 | 54.22698 | 45.32585 | 2024 ft | 133 kts | 205° |
| 2026-05-07 18:08 | 54.21932 | 45.31715 | 1990 ft | 133 kts | 207° |
| 2026-05-07 18:08 | 54.21166 | 45.30846 | 2002 ft | 131 kts | 206° |
| 2026-05-07 18:09 | 54.20401 | 45.29998 | 1995 ft | 130 kts | 206° |
| 2026-05-07 18:09 | 54.19646 | 45.29170 | 1980 ft | 130 kts | 205° |
| 2026-05-07 18:09 | 54.18869 | 45.28325 | 1866 ft | 132 kts | 206° |
| 2026-05-07 18:09 | 54.18109 | 45.27491 | 1659 ft | 131 kts | 204° |
| 2026-05-07 18:10 | 54.17334 | 45.26674 | 1461 ft | 130 kts | 208° |
| 2026-05-07 18:10 | 54.16568 | 45.25836 | 1323 ft | 131 kts | 210° |
| 2026-05-07 18:10 | 54.15800 | 45.24978 | 1189 ft | 132 kts | 211° |
| 2026-05-07 18:10 | 54.15027 | 45.24111 | 1046 ft | 133 kts | 211° |
| 2026-05-07 18:11 | 54.14260 | 45.23263 | 873 ft | 132 kts | 211° |
| 2026-05-07 18:11 | 54.13757 | 45.22673 | 740 ft | 130 kts | 214° |
| 2026-05-07 18:11 | 54.12895 | 45.21681 | 639 ft | 75 kts | 214° |
| 2026-05-07 18:11 | 54.12732 | 45.21475 | 642 ft | 0 kts | 179° |
| 2026-05-07 18:12 | 54.12726 | 45.21482 | 642 ft | 2 kts | 130° |
| 2026-05-07 18:12 | 54.12732 | 45.21514 | 642 ft | 10 kts | 38° |
| 2026-05-07 18:12 | 54.12889 | 45.21665 | 639 ft | 32 kts | 31° |
| 2026-05-07 18:12 | 54.13079 | 45.21889 | 641 ft | 35 kts | 32° |
| 2026-05-07 18:13 | 54.13208 | 45.21881 | 648 ft | 17 kts | 303° |
| 2026-05-07 18:13 | 54.13280 | 45.21694 | 652 ft | 21 kts | 303° |
| 2026-05-07 18:13 | 54.13359 | 45.21492 | 653 ft | 21 kts | 305° |
| 2026-05-07 18:13 | 54.13419 | 45.21416 | 651 ft | 7 kts | 17° |
| 2026-05-07 18:14 | 54.13510 | 45.21510 | 650 ft | 21 kts | 32° |
| 2026-05-07 18:14 | 54.13540 | 45.21630 | 653 ft | 3 kts | 123° |
| 2026-05-07 18:14 | 54.13539 | 45.21633 | 653 ft | 0 kts | 123° |